Time;durP1;ratioP1;P1;durP2;ratioP2;P2;SDS_P1;SDS_P2;PMS_P1;PMS_P2;Temp;Humidity;BMP_temperature;BMP_pressure;BME280_temperature;BME280_humidity;BME280_pressure;Samples;Min_cycle;Max_cycle;Signal;HPM_P1;HPM_P2
2021/09/28 00:00:32;;;;;;;;;;;14.50;99.90;;;;;;5063860;28;20014;-70
2021/09/28 00:02:58;;;;;;;;;;;14.50;99.90;;;;;;5061386;28;20038;-69
2021/09/28 00:05:24;;;;;;;;;;;14.50;99.90;;;;;;5064196;28;20756;-69
2021/09/28 00:07:50;;;;;;;;;;;14.40;99.90;;;;;;5061287;28;20067;-69
2021/09/28 00:10:15;;;;;;;;;;;14.40;99.90;;;;;;5054297;28;19946;-71
2021/09/28 00:12:41;;;;;;;;;;;14.40;99.90;;;;;;5062343;28;19964;-69
2021/09/28 00:15:08;;;;;;;;;;;14.40;99.90;;;;;;5063183;28;20069;-68
2021/09/28 00:17:33;;;;;;;;;;;14.50;99.90;;;;;;5063239;28;20043;-71
2021/09/28 00:19:59;;;;;;;;;;;14.40;99.90;;;;;;5064271;28;20047;-69
2021/09/28 00:22:24;;;;;;;;;;;14.40;99.90;;;;;;5061484;28;19996;-70
2021/09/28 00:24:50;;;;;;;;;;;14.40;99.90;;;;;;5061427;28;19995;-70
2021/09/28 00:27:15;;;;;;;;;;;14.40;99.90;;;;;;5062468;28;19992;-69
2021/09/28 00:29:41;;;;;;;;;;;14.40;99.90;;;;;;5060664;28;19945;-69
2021/09/28 00:32:07;;;;;;;;;;;14.40;99.90;;;;;;5062113;28;20003;-69
2021/09/28 00:34:33;;;;;;;;;;;14.30;99.90;;;;;;5060977;28;20071;-68
2021/09/28 00:36:59;;;;;;;;;;;14.40;99.90;;;;;;5045877;28;19956;-70
2021/09/28 00:39:24;;;;;;;;;;;14.30;99.90;;;;;;5043239;28;19957;-70
2021/09/28 00:41:50;;;;;;;;;;;14.30;99.90;;;;;;5061140;28;20304;-68
2021/09/28 00:44:15;;;;;;;;;;;14.30;99.90;;;;;;5061386;28;19989;-69
2021/09/28 00:46:41;;;;;;;;;;;14.40;99.90;;;;;;5058826;28;19949;-69
2021/09/28 00:49:08;;;;;;;;;;;14.40;99.90;;;;;;5045243;28;19956;-70
2021/09/28 00:51:34;;;;;;;;;;;14.30;99.90;;;;;;5044108;28;19956;-70
2021/09/28 00:54:00;;;;;;;;;;;14.30;99.90;;;;;;5063675;28;19956;-68
2021/09/28 00:56:25;;;;;;;;;;;14.30;99.90;;;;;;5041685;28;20700;-70
2021/09/28 00:58:51;;;;;;;;;;;14.30;99.90;;;;;;5061049;28;19953;-69
2021/09/28 01:01:17;;;;;;;;;;;14.30;99.90;;;;;;5060330;28;19949;-70
2021/09/28 01:03:43;;;;;;;;;;;14.30;99.90;;;;;;5044740;28;19993;-69
2021/09/28 01:06:08;;;;;;;;;;;14.30;99.90;;;;;;5061314;28;19956;-68
2021/09/28 01:08:34;;;;;;;;;;;14.30;99.90;;;;;;5062209;28;20069;-69
2021/09/28 01:11:01;;;;;;;;;;;14.20;99.90;;;;;;5062072;28;20730;-69
2021/09/28 01:13:27;;;;;;;;;;;14.20;99.90;;;;;;5060769;28;20312;-69
2021/09/28 01:15:58;;;;;;;;;;;14.20;99.90;;;;;;5061768;28;19953;-70
2021/09/28 01:18:24;;;;;;;;;;;14.20;99.90;;;;;;5061185;28;19957;-70
2021/09/28 01:20:50;;;;;;;;;;;14.20;99.90;;;;;;5062457;28;19945;-71
2021/09/28 01:23:16;;;;;;;;;;;14.20;99.90;;;;;;5045068;28;20001;-71
2021/09/28 01:25:41;;;;;;;;;;;14.20;99.90;;;;;;5049758;28;19949;-69
2021/09/28 01:28:07;;;;;;;;;;;14.20;99.90;;;;;;5067893;28;19949;-70
2021/09/28 01:30:33;;;;;;;;;;;14.20;99.90;;;;;;5049733;28;20126;-69
2021/09/28 01:32:58;;;;;;;;;;;14.20;99.90;;;;;;5067604;28;20035;-69
2021/09/28 01:35:24;;;;;;;;;;;14.20;99.90;;;;;;5047750;28;20099;-69
2021/09/28 01:37:50;;;;;;;;;;;14.10;99.90;;;;;;5081698;28;20468;-68
2021/09/28 01:40:15;;;;;;;;;;;14.10;99.90;;;;;;5049667;28;20416;-70
2021/09/28 01:42:41;;;;;;;;;;;14.10;99.90;;;;;;5067207;28;20534;-69
2021/09/28 01:45:06;;;;;;;;;;;14.10;99.90;;;;;;5084069;28;19943;-69
2021/09/28 01:47:33;;;;;;;;;;;14.00;99.90;;;;;;5051422;28;19960;-69
2021/09/28 01:49:58;;;;;;;;;;;14.00;99.90;;;;;;5065575;28;20044;-69
2021/09/28 01:52:24;;;;;;;;;;;14.00;99.90;;;;;;5066379;28;20537;-68
2021/09/28 01:54:49;;;;;;;;;;;14.00;99.90;;;;;;5068331;28;19988;-71
2021/09/28 01:57:15;;;;;;;;;;;14.00;99.90;;;;;;5072216;28;20033;-71
2021/09/28 01:59:40;;;;;;;;;;;14.00;99.90;;;;;;5053333;28;20441;-69
2021/09/28 02:02:06;;;;;;;;;;;14.00;99.90;;;;;;5090524;28;19942;-70
2021/09/28 02:04:31;;;;;;;;;;;14.00;99.90;;;;;;5086076;28;19946;-70
2021/09/28 02:06:58;;;;;;;;;;;13.90;99.90;;;;;;5071024;28;19948;-70
2021/09/28 02:09:23;;;;;;;;;;;13.90;99.90;;;;;;5068557;28;20484;-70
2021/09/28 02:11:49;;;;;;;;;;;13.90;99.90;;;;;;5051531;28;19956;-70
2021/09/28 02:14:15;;;;;;;;;;;13.90;99.90;;;;;;5084819;28;19949;-70
2021/09/28 02:16:44;;;;;;;;;;;13.90;99.90;;;;;;5052480;28;19956;-69
2021/09/28 02:19:10;;;;;;;;;;;13.80;99.90;;;;;;5069830;28;19988;-70
2021/09/28 02:21:36;;;;;;;;;;;13.80;99.90;;;;;;5050643;28;19943;-70
2021/09/28 02:24:02;;;;;;;15.50;4.63;;;13.80;99.90;;;;;;5068314;28;20118;-69
2021/09/28 02:26:27;;;;;;;24.75;4.85;;;13.70;99.90;;;;;;5065344;28;20178;-70
2021/09/28 02:28:53;;;;;;;19.02;4.18;;;13.70;99.90;;;;;;5061738;28;20189;-71
2021/09/28 02:31:19;;;;;;;17.55;4.30;;;13.70;99.90;;;;;;5065587;28;20190;-68
2021/09/28 02:33:45;;;;;;;18.73;4.93;;;13.70;99.90;;;;;;5065076;28;20186;-70
2021/09/28 02:36:10;;;;;;;27.98;4.72;;;13.60;99.90;;;;;;5061975;28;20175;-70
2021/09/28 02:38:36;;;;;;;19.38;4.30;;;13.60;99.90;;;;;;5064008;28;20210;-69
2021/09/28 02:41:02;;;;;;;21.65;4.53;;;13.60;99.90;;;;;;5044049;28;20190;-69
2021/09/28 02:43:28;;;;;;;18.45;4.05;;;13.50;99.90;;;;;;5065407;28;20174;-68
2021/09/28 02:45:53;;;;;;;25.08;4.60;;;13.50;99.90;;;;;;5060759;28;20187;-71
2021/09/28 02:48:19;;;;;;;22.83;4.50;;;13.50;99.90;;;;;;5064973;28;20251;-71
2021/09/28 02:50:45;;;;;;;14.45;4.28;;;13.50;99.90;;;;;;5063367;28;20195;-68
2021/09/28 02:53:12;;;;;;;16.88;4.00;;;13.50;99.90;;;;;;5063677;28;20182;-70
2021/09/28 02:55:37;;;;;;;21.10;4.90;;;13.50;99.90;;;;;;5063901;28;20629;-70
2021/09/28 02:58:03;;;;;;;18.60;4.13;;;13.50;99.90;;;;;;5062368;28;20178;-70
2021/09/28 03:00:28;;;;;;;16.05;4.25;;;13.40;99.90;;;;;;5063576;28;20190;-70
2021/09/28 03:02:54;;;;;;;19.17;4.30;;;13.40;99.90;;;;;;5045014;28;20161;-68
2021/09/28 03:05:20;;;;;;;15.45;4.10;;;13.40;99.90;;;;;;5062273;28;20619;-70
2021/09/28 03:07:45;;;;;;;21.60;4.60;;;13.40;99.90;;;;;;5063899;28;20186;-69
2021/09/28 03:10:11;;;;;;;26.95;5.05;;;13.40;99.90;;;;;;5064002;28;20269;-70
2021/09/28 03:12:37;;;;;;;20.27;4.65;;;13.40;99.90;;;;;;5063590;28;20186;-70
2021/09/28 03:15:03;;;;;;;19.63;4.90;;;13.40;99.90;;;;;;5064710;28;20179;-70
2021/09/28 03:17:29;;;;;;;17.58;4.43;;;13.30;99.90;;;;;;5060773;28;20187;-70
2021/09/28 03:19:54;;;;;;;16.90;4.45;;;13.40;99.90;;;;;;5045350;28;20221;-70
2021/09/28 03:22:20;;;;;;;18.70;4.57;;;13.30;99.90;;;;;;5061669;28;20189;-70
2021/09/28 03:24:46;;;;;;;17.27;4.63;;;13.30;99.90;;;;;;5053093;28;20683;-69
2021/09/28 03:27:12;;;;;;;13.20;4.60;;;13.30;99.90;;;;;;5068274;28;20336;-69
2021/09/28 03:29:38;;;;;;;28.95;5.10;;;13.30;99.90;;;;;;5069663;28;20315;-70
2021/09/28 03:32:04;;;;;;;27.80;4.97;;;13.30;99.90;;;;;;5068548;28;20182;-70
2021/09/28 03:34:29;;;;;;;19.38;4.63;;;13.20;99.90;;;;;;5068230;28;20190;-70
2021/09/28 03:36:55;;;;;;;17.10;5.03;;;13.20;99.90;;;;;;5069755;28;20205;-68
2021/09/28 03:39:20;;;;;;;18.52;4.95;;;13.20;99.90;;;;;;5068701;28;20203;-70
2021/09/28 03:41:46;;;;;;;20.67;5.05;;;13.20;99.90;;;;;;5068090;28;20198;-70
2021/09/28 03:44:12;;;;;;;21.38;4.85;;;13.20;99.90;;;;;;5069272;28;20493;-69
2021/09/28 03:46:37;;;;;;;18.60;4.95;;;13.20;99.90;;;;;;5066267;28;20718;-68
2021/09/28 03:49:03;;;;;;;22.27;4.50;;;13.10;99.90;;;;;;5068033;28;20179;-69
2021/09/28 03:51:29;;;;;;;17.67;4.57;;;13.10;99.90;;;;;;5068729;28;20189;-69
2021/09/28 03:53:54;;;;;;;29.67;5.30;;;13.10;99.90;;;;;;5102665;27;20863;-69
2021/09/28 03:56:21;;;;;;;21.50;5.78;;;13.10;99.90;;;;;;5068204;28;20194;-69
2021/09/28 03:58:47;;;;;;;29.38;5.20;;;13.10;99.90;;;;;;5067354;28;20644;-69
2021/09/28 04:01:12;;;;;;;17.15;4.18;;;13.10;99.90;;;;;;5066407;28;20183;-70
2021/09/28 04:03:41;;;;;;;23.58;5.00;;;13.10;99.90;;;;;;5069516;28;20197;-70
2021/09/28 04:06:07;;;;;;;17.98;5.00;;;13.10;99.90;;;;;;5069457;28;20182;-68
2021/09/28 04:08:33;;;;;;;20.13;5.47;;;13.10;99.90;;;;;;5067575;28;20783;-69
2021/09/28 04:10:58;;;;;;;20.13;5.20;;;13.10;99.90;;;;;;5068161;28;20182;-69
2021/09/28 04:13:24;;;;;;;21.48;5.25;;;13.10;99.90;;;;;;5071091;28;20194;-70
2021/09/28 04:15:52;;;;;;;21.73;5.50;;;13.00;99.90;;;;;;5068328;28;20634;-68
2021/09/28 04:18:18;;;;;;;16.30;5.15;;;13.00;99.90;;;;;;5069673;28;20210;-71
2021/09/28 04:20:45;;;;;;;19.27;4.90;;;13.00;99.90;;;;;;5066647;28;20266;-69
2021/09/28 04:23:12;;;;;;;21.63;5.38;;;13.00;99.90;;;;;;5098611;27;20199;-69
2021/09/28 04:25:39;;;;;;;18.42;5.35;;;13.00;99.90;;;;;;5043875;28;20210;-68
2021/09/28 04:28:05;;;;;;;22.67;5.32;;;13.00;99.90;;;;;;5044054;28;20187;-70
2021/09/28 04:30:31;;;;;;;28.20;5.78;;;13.00;99.90;;;;;;5055732;28;20345;-68
2021/09/28 04:32:56;;;;;;;22.17;5.97;;;13.00;99.90;;;;;;5062274;28;20178;-69
2021/09/28 04:35:22;;;;;;;20.52;5.38;;;13.00;99.90;;;;;;5062098;28;20186;-69
2021/09/28 04:37:48;;;;;;;17.95;5.18;;;12.90;99.90;;;;;;5043125;28;20193;-69
2021/09/28 04:40:14;;;;;;;21.95;6.20;;;13.00;99.90;;;;;;5044619;28;20279;-70
2021/09/28 04:42:40;;;;;;;18.08;5.43;;;12.90;99.90;;;;;;5041997;28;20182;-69
2021/09/28 04:45:07;;;;;;;21.27;5.72;;;12.90;99.90;;;;;;5044112;28;20183;-69
2021/09/28 04:47:33;;;;;;;17.27;5.20;;;12.90;99.90;;;;;;5071266;28;20201;-69
2021/09/28 04:49:58;;;;;;;31.13;5.63;;;12.90;99.90;;;;;;5041365;28;20186;-70
2021/09/28 04:52:24;;;;;;;28.65;6.78;;;12.90;99.90;;;;;;5054139;28;20990;-69
2021/09/28 04:54:50;;;;;;;29.05;6.65;;;12.90;99.90;;;;;;5049342;28;20222;-70
2021/09/28 04:57:15;;;;;;;29.50;5.45;;;12.90;99.90;;;;;;5063021;28;20190;-72
2021/09/28 04:59:41;;;;;;;24.00;5.45;;;12.90;99.90;;;;;;5043516;28;20202;-68
2021/09/28 05:02:07;;;;;;;26.52;6.05;;;12.90;99.90;;;;;;5023825;28;20185;-68
2021/09/28 05:04:32;;;;;;;21.33;5.72;;;12.90;99.90;;;;;;5051960;28;20652;-69
2021/09/28 05:06:58;;;;;;;15.43;5.30;;;12.90;99.90;;;;;;5062294;28;20184;-69
2021/09/28 05:09:24;;;;;;;15.95;5.18;;;12.80;99.90;;;;;;5061942;28;20950;-68
2021/09/28 05:11:49;;;;;;;29.27;6.00;;;12.80;99.90;;;;;;5039885;28;20190;-69
2021/09/28 05:14:15;;;;;;;20.50;5.32;;;12.80;99.90;;;;;;5045041;28;20560;-70
2021/09/28 05:16:41;;;;;;;18.45;5.05;;;12.80;99.90;;;;;;5041479;28;20533;-68
2021/09/28 05:19:07;;;;;;;19.23;5.13;;;12.80;99.90;;;;;;5060270;28;20230;-69
2021/09/28 05:21:33;;;;;;;27.80;5.97;;;12.80;99.90;;;;;;5060856;28;20190;-69
2021/09/28 05:23:59;;;;;;;21.23;5.10;;;12.80;99.90;;;;;;5051725;28;20738;-71
2021/09/28 05:26:25;;;;;;;26.42;5.25;;;12.80;99.90;;;;;;5067082;28;20222;-71
2021/09/28 05:28:51;;;;;;;26.55;5.90;;;12.80;99.90;;;;;;5102391;27;20333;-69
2021/09/28 05:31:17;;;;;;;27.02;5.47;;;12.80;99.90;;;;;;5072593;28;20585;-69
2021/09/28 05:33:43;;;;;;;17.73;5.03;;;12.80;99.90;;;;;;5070681;28;20221;-69
2021/09/28 05:36:08;;;;;;;23.90;5.55;;;12.80;99.90;;;;;;5071244;28;20214;-70
2021/09/28 05:38:34;;;;;;;28.45;5.57;;;12.80;99.90;;;;;;5071571;28;20221;-69
2021/09/28 05:41:04;;;;;;;22.63;5.35;;;12.80;99.90;;;;;;5069127;28;20195;-70
2021/09/28 05:43:30;;;;;;;24.70;4.90;;;12.70;99.90;;;;;;5072302;28;20235;-69
2021/09/28 05:45:56;;;;;;;20.13;5.03;;;12.70;99.90;;;;;;5070435;28;20209;-69
2021/09/28 05:48:21;;;;;;;19.23;5.18;;;12.70;99.90;;;;;;5071932;28;20186;-66
2021/09/28 05:50:47;;;;;;;26.25;5.82;;;12.70;99.90;;;;;;5072939;28;20182;-70
2021/09/28 05:53:13;;;;;;;26.30;5.18;;;12.70;99.90;;;;;;5072136;28;20190;-69
2021/09/28 05:55:39;;;;;;;;;;;12.70;99.90;;;;;;5071837;28;20190;-71
2021/09/28 05:58:04;;;;;;;19.50;4.57;;;12.70;99.90;;;;;;5072424;28;20195;-70
2021/09/28 06:00:31;;;;;;;13.95;4.35;;;12.70;99.90;;;;;;5070420;28;20182;-70
2021/09/28 06:02:56;;;;;;;22.15;4.95;;;12.70;99.90;;;;;;5070096;28;20209;-70
2021/09/28 06:05:22;;;;;;;16.90;4.90;;;12.70;99.90;;;;;;5071381;28;20975;-71
2021/09/28 06:07:48;;;;;;;15.18;4.40;;;12.70;99.90;;;;;;5071276;28;20346;-70
2021/09/28 06:10:14;;;;;;;17.35;4.50;;;12.80;99.90;;;;;;5069289;28;20199;-70
2021/09/28 06:12:41;;;;;;;21.15;4.80;;;12.80;99.90;;;;;;5103455;27;20216;-69
2021/09/28 06:15:07;;;;;;;17.80;5.00;;;12.80;99.90;;;;;;5069745;28;20170;-69
2021/09/28 06:17:33;;;;;;;25.38;5.28;;;12.80;99.90;;;;;;5070910;28;20202;-69
2021/09/28 06:19:58;;;;;;;15.30;4.47;;;12.80;99.90;;;;;;5069995;28;20606;-69
2021/09/28 06:22:25;;;;;;;25.02;4.95;;;12.80;99.90;;;;;;5065925;28;20420;-71
2021/09/28 06:24:55;;;;;;;17.88;4.20;;;12.80;99.90;;;;;;5062645;28;20598;-70
2021/09/28 06:27:22;;;;;;;20.85;5.07;;;12.80;99.90;;;;;;5043989;28;20194;-70
2021/09/28 06:29:48;;;;;;;21.58;5.03;;;12.80;99.90;;;;;;5064159;28;20245;-69
2021/09/28 06:32:14;;;;;;;15.30;4.70;;;12.90;99.90;;;;;;5063989;28;20179;-71
2021/09/28 06:34:39;;;;;;;21.20;4.45;;;12.90;99.90;;;;;;5047560;28;20529;-68
2021/09/28 06:37:05;;;;;;;21.63;4.72;;;12.90;99.90;;;;;;5060926;28;20316;-69
2021/09/28 06:39:31;;;;;;;20.70;4.40;;;12.90;99.90;;;;;;5063419;28;20236;-68
2021/09/28 06:41:57;;;;;;;19.63;4.75;;;13.00;99.90;;;;;;5062164;28;20639;-72
2021/09/28 06:44:23;;;;;;;19.75;4.15;;;13.00;99.90;;;;;;5063454;28;20179;-70
2021/09/28 06:46:48;;;;;;;17.27;4.50;;;13.00;99.90;;;;;;5061097;28;20175;-71
2021/09/28 06:49:14;;;;;;;16.08;4.18;;;13.00;99.90;;;;;;5042827;28;20324;-69
2021/09/28 06:51:40;;;;;;;20.23;4.30;;;13.00;99.90;;;;;;5063533;28;20219;-69
2021/09/28 06:54:05;;;;;;;16.40;4.13;;;13.10;99.90;;;;;;5062920;28;20198;-70
2021/09/28 06:56:31;;;;;;;21.40;4.75;;;13.10;99.90;;;;;;5063130;28;20187;-69
2021/09/28 06:58:58;;;;;;;19.58;4.10;;;13.10;99.90;;;;;;5063688;28;20234;-69
2021/09/28 07:01:23;;;;;;;21.73;3.90;;;13.10;99.90;;;;;;5061943;28;20210;-71
2021/09/28 07:03:49;;;;;;;14.70;4.05;;;13.20;99.90;;;;;;5064716;28;20210;-68
2021/09/28 07:06:15;;;;;;;18.77;4.00;;;13.20;99.90;;;;;;5045916;28;20194;-71
2021/09/28 07:08:40;;;;;;;26.98;5.00;;;13.20;99.90;;;;;;5063295;28;20183;-70
2021/09/28 07:11:06;;;;;;;15.65;4.00;;;13.20;99.90;;;;;;5063020;28;20240;-70
2021/09/28 07:13:32;;;;;;;28.50;4.30;;;13.20;99.90;;;;;;5062222;28;20673;-68
2021/09/28 07:15:57;;;;;;;18.92;3.72;;;13.20;99.90;;;;;;5060571;28;20195;-71
2021/09/28 07:18:23;;;;;;;27.00;4.30;;;13.30;99.90;;;;;;5062779;28;20218;-69
2021/09/28 07:20:49;;;;;;;20.50;3.97;;;13.30;99.90;;;;;;5043504;28;20179;-71
2021/09/28 07:23:14;;;;;;;16.15;4.03;;;13.40;99.90;;;;;;5063932;28;20393;-70
2021/09/28 07:25:42;;;;;;;21.20;3.58;;;13.40;99.90;;;;;;5059770;28;20269;-73
2021/09/28 07:28:08;;;;;;;15.73;4.03;;;13.40;99.90;;;;;;5064866;28;20187;-68
2021/09/28 07:30:35;;;;;;;21.67;4.00;;;13.50;99.90;;;;;;5061858;28;20193;-70
2021/09/28 07:33:02;;;;;;;14.55;4.95;;;13.50;99.90;;;;;;5063385;28;20183;-69
2021/09/28 07:35:28;;;;;;;23.00;4.63;;;13.60;99.90;;;;;;5045183;28;20179;-71
2021/09/28 07:37:54;;;;;;;16.95;3.47;;;13.60;99.90;;;;;;5043927;28;20950;-69
2021/09/28 07:40:20;;;;;;;18.05;3.95;;;13.60;99.90;;;;;;5062248;28;20210;-70
2021/09/28 07:42:46;;;;;;;16.30;4.30;;;13.70;99.90;;;;;;5062389;28;20228;-70
2021/09/28 07:45:13;;;;;;;11.75;3.60;;;13.80;99.90;;;;;;5063430;28;20183;-68
2021/09/28 07:47:39;;;;;;;24.40;3.75;;;13.80;99.90;;;;;;5062519;28;20198;-69
2021/09/28 07:50:05;;;;;;;18.65;3.97;;;13.90;99.90;;;;;;5062858;28;20186;-69
2021/09/28 07:52:31;;;;;;;17.25;3.67;;;13.90;99.90;;;;;;5058334;28;20574;-68
2021/09/28 07:54:58;;;;;;;19.80;3.88;;;14.00;99.90;;;;;;5062526;28;20743;-68
2021/09/28 07:57:24;;;;;;;18.40;3.85;;;14.00;99.90;;;;;;5061410;28;20281;-69
2021/09/28 07:59:51;;;;;;;18.23;3.80;;;14.10;99.90;;;;;;5063206;28;20214;-70
2021/09/28 08:02:20;;;;;;;18.67;3.58;;;14.10;99.90;;;;;;5061530;28;20245;-70
2021/09/28 08:04:46;;;;;;;14.68;3.70;;;14.30;99.90;;;;;;5063011;28;20668;-70
2021/09/28 08:07:13;;;;;;;16.02;3.55;;;14.50;99.90;;;;;;5044451;28;20185;-68
2021/09/28 08:09:39;;;;;;;;;;;14.60;99.90;;;;;;5043868;28;20057;-71
2021/09/28 08:12:06;;;;;;;16.45;3.50;;;14.80;99.90;;;;;;5060882;28;20200;-69
2021/09/28 08:14:32;;;;;;;16.02;3.55;;;15.00;99.90;;;;;;5059461;28;20194;-70
2021/09/28 08:16:58;;;;;;;17.02;3.78;;;15.20;99.90;;;;;;5058777;28;20188;-68
2021/09/28 08:19:23;;;;;;;17.98;4.03;;;15.40;99.90;;;;;;5062529;28;20209;-71
2021/09/28 08:21:51;;;;;;;14.70;3.28;;;15.50;99.90;;;;;;5043668;28;20190;-71
2021/09/28 08:24:17;;;;;;;15.60;3.78;;;15.50;99.90;;;;;;5061934;28;20229;-67
2021/09/28 08:29:27;;;;;;;18.98;3.95;;;15.50;99.90;;;;;;5060233;28;20191;-69
2021/09/28 08:31:53;;;;;;;15.75;4.07;;;15.50;99.90;;;;;;5061471;28;20921;-69
2021/09/28 08:34:20;;;;;;;13.77;3.42;;;15.50;99.90;;;;;;5063089;28;20228;-71
2021/09/28 08:36:48;;;;;;;16.88;3.90;;;15.50;99.90;;;;;;5062614;28;20183;-69
2021/09/28 08:39:18;;;;;;;18.92;2.97;;;15.50;99.90;;;;;;5062535;28;20241;-68
2021/09/28 08:41:46;;;;;;;18.15;3.50;;;15.60;99.90;;;;;;5060004;28;20183;-70
2021/09/28 08:44:13;;;;;;;17.58;3.33;;;15.60;99.90;;;;;;5059946;28;20492;-71
2021/09/28 08:46:39;;;;;;;21.02;3.33;;;15.70;99.90;;;;;;5059524;28;20682;-69
2021/09/28 08:49:05;;;;;;;16.27;3.33;;;15.80;99.90;;;;;;5062064;28;21673;-69
2021/09/28 08:51:32;;;;;;;17.15;3.40;;;15.80;99.90;;;;;;5061568;28;20190;-68
2021/09/28 08:53:57;;;;;;;;;;;15.90;99.90;;;;;;5062691;28;20302;-69
2021/09/28 08:56:24;;;;;;;;;;;16.00;99.90;;;;;;5045803;28;20630;-69
2021/09/28 08:59:03;;;;;;;19.70;3.58;;;16.10;99.90;;;;;;5061907;28;20228;-69
2021/09/28 09:01:30;;;;;;;16.30;3.05;;;16.30;99.90;;;;;;5060747;28;20543;-71
2021/09/28 09:03:56;;;;;;;19.80;3.50;;;16.40;99.90;;;;;;5063953;28;20640;-70
2021/09/28 09:06:34;;;;;;;14.38;2.88;;;16.50;99.90;;;;;;5065755;28;20232;-69
2021/09/28 09:09:01;;;;;;;;;;;16.60;99.90;;;;;;5066010;28;20064;-70
2021/09/28 09:11:33;;;;;;;;;;;16.80;99.90;;;;;;5065783;28;19912;-69
2021/09/28 09:13:58;;;;;;;;;;;16.90;99.90;;;;;;5065365;28;19995;-69
2021/09/28 09:16:34;;;;;;;18.38;2.92;;;17.30;99.90;;;;;;5063409;28;20249;-71
2021/09/28 09:19:13;;;;;;;;;;;18.20;99.90;;;;;;5065751;28;20210;-70
2021/09/28 09:21:49;;;;;;;;;;;19.30;99.90;;;;;;5048557;28;19939;-73
2021/09/28 09:24:34;;;;;;;;;;;20.70;99.90;;;;;;5058931;28;20678;-68
2021/09/28 09:26:59;;;;;;;;;;;21.90;99.00;;;;;;5070001;28;20055;-74
2021/09/28 09:29:25;;;;;;;;;;;23.00;96.20;;;;;;5104439;27;20011;-70
2021/09/28 09:31:54;;;;;;;;;;;23.90;93.50;;;;;;5070815;28;20019;-71
2021/09/28 09:34:21;;;;;;;;;;;24.70;90.70;;;;;;5071396;28;19981;-72
2021/09/28 09:36:54;;;;;;;;;;;25.40;86.50;;;;;;5075772;28;19918;-70
2021/09/28 09:39:21;;;;;;;;;;;26.10;81.60;;;;;;5071167;28;19946;-71
2021/09/28 09:41:47;;;;;;;;;;;26.70;77.40;;;;;;5070466;28;19970;-71
2021/09/28 09:44:14;;;;;;;;;;;27.30;72.00;;;;;;5073037;28;19966;-71
2021/09/28 09:46:40;;;;;;;;;;;27.50;68.80;;;;;;5069134;28;19958;-71
2021/09/28 09:49:06;;;;;;;;;;;27.50;65.50;;;;;;5072536;28;19920;-70
2021/09/28 09:51:40;;;;;;;9.07;2.33;;;27.70;64.00;;;;;;5071456;28;20415;-71
2021/09/28 09:54:06;;;;;;;12.10;2.30;;;27.90;61.50;;;;;;5074040;28;20217;-70
2021/09/28 09:56:50;;;;;;;11.27;2.40;;;28.10;59.50;;;;;;5073772;28;20107;-72
2021/09/28 09:59:17;;;;;;;10.95;2.47;;;28.10;58.40;;;;;;5071467;28;20224;-70
2021/09/28 10:01:43;;;;;;;;;;;28.40;57.50;;;;;;5105197;28;20103;-74
2021/09/28 10:04:10;;;;;;;;;;;28.70;56.40;;;;;;5081004;28;20007;-73
2021/09/28 10:06:36;;;;;;;;;;;29.10;54.70;;;;;;5071176;28;19927;-70
2021/09/28 10:09:04;;;;;;;;;;;29.50;53.60;;;;;;5075020;28;20377;-72
2021/09/28 10:11:36;;;;;;;;;;;29.90;52.10;;;;;;5073679;28;19919;-70
2021/09/28 10:14:03;;;;;;;15.38;2.63;;;29.90;50.90;;;;;;5068107;28;20750;-67
2021/09/28 10:16:32;;;;;;;9.80;2.15;;;29.70;50.60;;;;;;5070320;28;20178;-69
2021/09/28 10:18:59;;;;;;;11.38;2.90;;;29.50;50.20;;;;;;5067681;28;20285;-68
2021/09/28 10:21:38;;;;;;;10.80;2.38;;;29.60;49.90;;;;;;5069989;28;20092;-72
2021/09/28 10:24:19;;;;;;;15.38;2.63;;;29.80;49.30;;;;;;5063431;28;20291;-68
2021/09/28 10:27:07;;;;;;;12.05;2.75;;;30.00;48.40;;;;;;5063839;28;20182;-70
2021/09/28 10:29:50;;;;;;;11.90;2.35;;;30.00;46.80;;;;;;5063529;28;20200;-69
2021/09/28 10:32:25;;;;;;;14.18;2.50;;;29.70;47.10;;;;;;5081346;28;20463;-71
2021/09/28 10:35:06;;;;;;;11.80;2.37;;;29.60;46.60;;;;;;5063733;28;20492;-72
2021/09/28 10:37:54;;;;;;;9.20;2.42;;;31.40;39.90;;;;;;5060337;28;20422;-72
2021/09/28 10:40:20;;;;;;;14.63;2.47;;;31.50;39.50;;;;;;5062582;28;20776;-69
2021/09/28 10:42:52;;;;;;;8.40;2.10;;;30.50;42.20;;;;;;5064724;28;20186;-68
2021/09/28 10:45:19;;;;;;;9.25;2.20;;;29.80;43.60;;;;;;5062704;28;20183;-69
2021/09/28 10:47:52;;;;;;;11.82;3.53;;;29.40;44.80;;;;;;5063077;28;20284;-68
2021/09/28 10:50:39;;;;;;;10.75;2.50;;;28.90;45.40;;;;;;5062999;28;20215;-67
2021/09/28 10:53:06;;;;;;;12.27;2.63;;;28.50;45.50;;;;;;5062800;28;20744;-70
2021/09/28 10:55:57;;;;;;;13.55;2.45;;;28.30;46.60;;;;;;5046230;28;20702;-71
2021/09/28 10:58:25;;;;;;;11.77;2.08;;;28.10;46.60;;;;;;5061639;28;20640;-71
2021/09/28 11:00:54;;;;;;;10.88;2.00;;;28.40;47.00;;;;;;5064171;28;20182;-71
2021/09/28 11:03:44;;;;;;;7.60;1.73;;;28.70;45.80;;;;;;5059925;28;20213;-69
2021/09/28 11:06:11;;;;;;;9.43;2.38;;;28.40;45.00;;;;;;5062625;28;20548;-72
2021/09/28 11:08:38;;;;;;;9.60;2.05;;;28.10;46.00;;;;;;5063640;28;20191;-68
2021/09/28 11:11:08;;;;;;;12.45;2.20;;;27.90;46.30;;;;;;5063623;28;20190;-69
2021/09/28 11:13:39;;;;;;;10.70;2.03;;;28.00;46.10;;;;;;5044889;28;20619;-71
2021/09/28 11:16:07;;;;;;;13.15;2.58;;;28.20;45.80;;;;;;5063800;28;20190;-69
2021/09/28 11:18:33;;;;;;;14.20;2.20;;;28.70;45.90;;;;;;5062707;28;20623;-70
2021/09/28 11:21:10;;;;;;;8.52;2.22;;;28.90;45.40;;;;;;5063622;28;20944;-70
2021/09/28 11:23:37;;;;;;;15.07;2.28;;;28.90;45.20;;;;;;5066353;28;20229;-71
2021/09/28 11:26:03;;;;;;;6.00;1.63;;;29.10;45.00;;;;;;5069919;28;20192;-68
2021/09/28 11:28:29;;;;;;;13.38;2.10;;;29.10;45.00;;;;;;5070416;28;20185;-70
2021/09/28 11:30:56;;;;;;;7.03;1.85;;;29.20;44.80;;;;;;5069777;28;20195;-71
2021/09/28 11:33:22;;;;;;;11.95;2.05;;;29.30;44.60;;;;;;5073108;28;20639;-70
2021/09/28 11:36:00;;;;;;;10.52;2.22;;;29.50;44.80;;;;;;5052135;28;20280;-69
2021/09/28 11:38:36;;;;;;;10.77;2.03;;;29.30;44.70;;;;;;5082281;28;20273;-70
2021/09/28 11:41:10;;;;;;;7.18;1.83;;;29.10;44.00;;;;;;5070013;28;20176;-70
2021/09/28 11:43:38;;;;;;;9.90;2.03;;;28.70;44.30;;;;;;5049376;28;20177;-70
2021/09/28 11:46:10;;;;;;;9.18;1.90;;;28.30;45.30;;;;;;5082419;28;20186;-71
2021/09/28 11:48:37;;;;;;;9.10;2.10;;;28.20;45.20;;;;;;5049177;28;20224;-69
2021/09/28 11:51:11;;;;;;;9.80;1.98;;;28.40;45.40;;;;;;5069229;28;20189;-69
2021/09/28 11:53:42;;;;;;;9.52;2.13;;;28.50;45.10;;;;;;5066087;28;20323;-71
2021/09/28 11:56:08;;;;;;;10.45;2.30;;;28.60;44.70;;;;;;5072137;28;20212;-69
2021/09/28 11:58:39;;;;;;;12.48;2.15;;;28.70;44.60;;;;;;5061333;28;20267;-69
2021/09/28 12:01:08;;;;;;;;;;;28.50;44.00;;;;;;5065682;28;20038;-69
2021/09/28 12:03:40;;;;;;;10.90;2.37;;;27.90;45.00;;;;;;5058975;28;20460;-70
2021/09/28 12:08:40;;;;;;;10.68;2.15;;;28.20;43.20;;;;;;5055671;28;20273;-70
2021/09/28 12:11:06;;;;;;;7.65;1.88;;;27.60;44.30;;;;;;5068256;28;20260;-71
2021/09/28 12:13:32;;;;;;;10.43;1.90;;;27.10;44.80;;;;;;5048505;28;20191;-72
2021/09/28 12:16:02;;;;;;;12.18;2.17;;;26.70;45.60;;;;;;5047952;28;20199;-70
2021/09/28 12:18:28;;;;;;;12.13;1.85;;;26.20;46.10;;;;;;5047840;28;20196;-73
2021/09/28 12:21:10;;;;;;;11.15;2.00;;;25.80;46.70;;;;;;5065514;28;20182;-68
2021/09/28 12:23:36;;;;;;;12.65;2.63;;;25.40;47.60;;;;;;5062538;28;20226;-70
2021/09/28 12:26:02;;;;;;;9.57;2.03;;;25.10;48.00;;;;;;5061943;28;20669;-69
2021/09/28 12:28:30;;;;;;;7.93;1.88;;;24.80;48.30;;;;;;5061706;28;20660;-69
2021/09/28 12:31:02;;;;;;;10.02;1.92;;;24.70;48.60;;;;;;5062805;28;20186;-68
2021/09/28 12:33:28;;;;;;;15.15;1.90;;;24.50;48.90;;;;;;5059834;28;20193;-70
2021/09/28 12:36:03;;;;;;;12.70;1.95;;;24.30;49.70;;;;;;5062234;28;20186;-70
2021/09/28 12:38:29;;;;;;;11.75;2.28;;;24.30;50.70;;;;;;5040406;28;20495;-70
2021/09/28 12:41:06;;;;;;;7.65;1.90;;;24.40;50.10;;;;;;5061696;28;20186;-68
2021/09/28 12:43:31;;;;;;;11.88;2.00;;;24.60;49.10;;;;;;5075157;28;20251;-69
2021/09/28 12:46:01;;;;;;;11.32;1.90;;;24.80;48.90;;;;;;5045396;28;20186;-68
2021/09/28 12:48:41;;;;;;;8.20;2.00;;;24.70;48.50;;;;;;5060692;28;20201;-70
2021/09/28 12:51:11;;;;;;;12.85;1.65;;;24.70;48.90;;;;;;5063137;28;20190;-68
2021/09/28 12:53:38;;;;;;;6.53;1.52;;;25.00;49.20;;;;;;5062022;28;20216;-68
2021/09/28 12:56:04;;;;;;;10.77;1.92;;;25.30;48.70;;;;;;5060424;28;20178;-69
2021/09/28 12:58:31;;;;;;;8.82;1.63;;;25.60;48.20;;;;;;5044505;28;20201;-69
2021/09/28 13:00:58;;;;;;;8.65;1.85;;;25.70;47.50;;;;;;5059477;28;20730;-70
2021/09/28 13:03:26;;;;;;;10.73;1.70;;;25.80;46.90;;;;;;5077248;28;20186;-70
2021/09/28 13:05:55;;;;;;;8.23;2.20;;;25.90;46.40;;;;;;5061107;28;20186;-70
2021/09/28 13:08:22;;;;;;;8.35;1.50;;;25.80;45.90;;;;;;5063495;28;20196;-70